createdAt,value
2018-07-28T10:13:39.198Z,38.09
2018-07-28T10:16:07.572Z,36.19
2018-07-28T10:18:35.838Z,36.18
2018-07-28T10:21:04.317Z,35.06
2018-07-28T10:23:32.625Z,35.95
2018-07-28T10:26:00.982Z,34.56
2018-07-28T10:28:29.287Z,35.46
2018-07-28T10:30:57.776Z,35.38
2018-07-28T10:33:26.130Z,35.63
2018-07-28T10:35:54.463Z,34.72
2018-07-28T10:38:22.781Z,34.97
2018-07-28T10:40:51.090Z,35.67
2018-07-28T10:43:19.449Z,34.66
2018-07-28T10:45:47.760Z,35.29
2018-07-28T10:48:18.154Z,35.01
2018-07-28T10:50:46.529Z,33.86
2018-07-28T10:53:14.817Z,34.09
2018-07-28T10:55:43.075Z,34.05
2018-07-28T10:58:12.401Z,33.89
2018-07-28T11:00:40.678Z,34.27
2018-07-28T11:03:08.991Z,33.21
2018-07-28T11:05:37.264Z,32.92
2018-07-28T11:08:05.645Z,32.94
2018-07-28T11:10:33.956Z,32.96
2018-07-28T11:13:03.277Z,31.28
2018-07-28T11:15:31.557Z,33.50
2018-07-28T11:18:03.146Z,33.58
2018-07-28T11:20:31.441Z,33.58
2018-07-28T11:23:00.805Z,32.47
2018-07-28T11:25:30.177Z,32.02
2018-07-28T11:28:00.509Z,30.45
2018-07-28T11:30:28.782Z,31.23
2018-07-28T11:33:08.962Z,31.33
2018-07-28T11:35:49.540Z,31.42
2018-07-28T11:38:31.201Z,31.67
2018-07-28T11:41:11.645Z,31.16
2018-07-28T11:43:51.573Z,30.17
2018-07-28T11:46:19.961Z,29.73
2018-07-28T11:48:49.284Z,29.67
2018-07-28T11:51:18.593Z,31.28
2018-07-28T11:53:46.937Z,31.86
2018-07-28T11:56:16.208Z,30.88
2018-07-28T11:58:48.187Z,29.88
2018-07-28T12:01:17.502Z,29.57
2018-07-28T12:03:45.788Z,28.99
2018-07-28T12:06:14.269Z,28.88
2018-07-28T12:08:42.560Z,30.88
2018-07-28T12:11:10.837Z,30.08
2018-07-28T12:13:42.544Z,30.73
2018-07-28T12:16:10.828Z,29.79
2018-07-28T12:18:39.247Z,29.96
2018-07-28T12:21:07.532Z,29.37
2018-07-28T12:23:35.813Z,30.04
2018-07-28T12:26:04.154Z,29.26
2018-07-28T12:28:33.457Z,29.24
2018-07-28T12:31:02.767Z,28.77
2018-07-28T12:33:31.049Z,28.43
2018-07-28T12:35:59.355Z,28.62
2018-07-28T12:38:28.696Z,28.79
2018-07-28T12:40:57.005Z,28.59
2018-07-28T12:43:25.356Z,27.90
2018-07-28T12:45:58.284Z,26.73
2018-07-28T12:48:26.589Z,27.40
2018-07-28T12:50:54.882Z,27.05
2018-07-28T12:53:23.201Z,28.51
2018-07-28T12:55:51.477Z,27.48
2018-07-28T12:58:21.790Z,26.81
2018-07-28T13:00:51.113Z,26.40
2018-07-28T13:03:19.409Z,26.80
2018-07-28T13:05:48.760Z,25.55
2018-07-28T13:08:18.096Z,27.11
2018-07-28T13:10:46.360Z,26.41
2018-07-28T13:13:14.677Z,24.81
2018-07-28T13:15:43.993Z,24.85
2018-07-28T13:18:13.421Z,25.39
2018-07-28T13:20:41.693Z,25.70
2018-07-28T13:23:10.013Z,24.65
2018-07-28T13:25:38.281Z,24.45
2018-07-28T13:28:06.613Z,25.41
2018-07-28T13:30:34.896Z,25.54
2018-07-28T13:33:03.337Z,24.07
2018-07-28T13:35:31.618Z,24.15
2018-07-28T13:37:59.930Z,23.76
2018-07-28T13:40:28.221Z,25.14
2018-07-28T13:42:56.533Z,26.46
2018-07-28T13:45:24.876Z,26.67
2018-07-28T13:47:54.240Z,26.57
2018-07-28T13:50:22.788Z,25.23
2018-07-28T13:52:51.060Z,26.04
2018-07-28T13:55:20.426Z,26.70
2018-07-28T13:57:48.717Z,26.61
2018-07-28T14:00:17.116Z,25.38
2018-07-28T14:02:46.379Z,25.80
2018-07-28T14:05:27.913Z,24.40
2018-07-28T14:07:58.273Z,25.23
2018-07-28T14:10:26.576Z,25.07
2018-07-28T14:12:56.907Z,25.42
2018-07-28T14:15:25.320Z,26.93
2018-07-28T14:17:53.544Z,26.81
2018-07-28T14:20:22.981Z,27.16
2018-07-28T14:22:52.459Z,27.85
2018-07-28T14:25:21.876Z,27.34
2018-07-28T14:27:51.335Z,27.57
2018-07-28T14:30:19.628Z,27.78
2018-07-28T14:32:48.005Z,27.74
2018-07-28T14:35:18.353Z,28.33
2018-07-28T14:37:46.771Z,28.90
2018-07-28T14:40:17.161Z,28.76
2018-07-28T14:42:45.490Z,28.54
2018-07-28T14:45:13.805Z,29.68
2018-07-28T14:47:44.260Z,29.42
2018-07-28T14:50:12.710Z,43.08
2018-07-28T14:52:41.077Z,46.85
2018-07-28T14:55:09.446Z,51.65
2018-07-28T14:57:37.725Z,54.24
2018-07-28T15:00:07.145Z,56.08
2018-07-28T15:02:35.460Z,57.26
2018-07-28T15:05:03.757Z,57.56
2018-07-28T15:07:32.143Z,58.84
2018-07-28T15:10:00.429Z,71.06
2018-07-28T15:12:28.752Z,81.47
2018-07-28T15:14:57.020Z,86.30
2018-07-28T15:17:25.324Z,86.60
2018-07-28T15:19:53.592Z,86.94
2018-07-28T15:22:21.953Z,85.17
2018-07-28T15:24:50.389Z,85.51
2018-07-28T15:27:18.648Z,86.41
2018-07-28T15:29:47.067Z,84.06
2018-07-28T15:32:15.361Z,83.85
2018-07-28T15:34:43.676Z,82.34
2018-07-28T15:37:11.949Z,82.15
2018-07-28T15:39:40.360Z,81.63
2018-07-28T15:42:08.638Z,82.62
2018-07-28T15:44:36.941Z,82.44
2018-07-28T15:47:05.376Z,82.92
2018-07-28T15:49:33.914Z,83.74
2018-07-28T15:52:02.109Z,84.50
2018-07-28T15:54:30.456Z,84.52
2018-07-28T15:56:59.953Z,84.15
2018-07-28T15:59:28.321Z,84.57
2018-07-28T16:01:56.717Z,85.45
2018-07-28T16:04:25.099Z,84.44
2018-07-28T16:06:53.404Z,84.08
2018-07-28T16:09:21.826Z,83.96
2018-07-28T16:11:52.145Z,83.73
2018-07-28T16:14:20.461Z,84.62
2018-07-28T16:16:49.845Z,85.56
2018-07-28T16:19:18.186Z,87.08
2018-07-28T16:21:46.560Z,83.97
2018-07-28T16:24:15.865Z,84.17
2018-07-28T16:26:44.190Z,84.26
2018-07-28T16:29:12.477Z,83.41
2018-07-28T16:31:40.825Z,82.21
2018-07-28T16:34:10.133Z,81.94
2018-07-28T16:36:38.449Z,80.07
2018-07-28T16:39:08.633Z,79.84
2018-07-28T16:41:38.002Z,81.08
2018-07-28T16:44:06.312Z,81.53
2018-07-28T16:46:34.660Z,81.39
2018-07-28T16:49:04.301Z,80.72
2018-07-28T16:51:32.661Z,80.72
2018-07-28T16:54:01.055Z,80.54
2018-07-28T16:56:29.440Z,80.37
2018-07-28T16:58:58.813Z,79.37
2018-07-28T17:01:27.145Z,78.78
2018-07-28T17:03:55.446Z,77.12
2018-07-28T17:06:24.106Z,76.62
2018-07-28T17:08:52.405Z,77.76
2018-07-28T17:11:20.701Z,77.81
2018-07-28T17:13:49.006Z,76.10
2018-07-28T17:16:17.309Z,75.07
2018-07-28T17:18:45.570Z,74.35
2018-07-28T17:21:13.825Z,76.32
2018-07-28T17:23:42.129Z,73.85
2018-07-28T17:26:10.522Z,73.27
2018-07-28T17:28:39.981Z,73.89
2018-07-28T17:31:08.843Z,75.08
2018-07-28T17:33:37.196Z,74.96
2018-07-28T17:36:05.486Z,74.28
2018-07-28T17:38:33.797Z,75.50
2018-07-28T17:41:02.438Z,76.04
2018-07-28T17:43:32.660Z,75.67
2018-07-28T17:46:01.052Z,75.97
2018-07-28T17:48:29.369Z,77.47
2018-07-28T17:50:57.725Z,77.49
2018-07-28T17:53:26.197Z,75.40
2018-07-28T17:55:54.401Z,76.09
2018-07-28T17:58:22.709Z,76.25
2018-07-28T18:00:51.104Z,77.84
2018-07-28T18:03:19.409Z,78.41
2018-07-28T18:05:47.685Z,78.66
2018-07-28T18:08:15.973Z,80.16
2018-07-28T18:10:44.257Z,78.59
2018-07-28T18:13:12.593Z,78.01
2018-07-28T18:15:40.857Z,79.37
2018-07-28T18:18:09.161Z,78.58
2018-07-28T18:20:37.447Z,78.34
2018-07-28T18:23:06.188Z,77.74
2018-07-28T18:25:34.519Z,76.29
2018-07-28T18:28:03.004Z,76.22
2018-07-28T18:30:31.424Z,74.22
2018-07-28T18:32:59.689Z,76.32
2018-07-28T18:35:28.023Z,75.64
2018-07-28T18:37:57.350Z,74.77
2018-07-28T18:40:25.710Z,76.14
2018-07-28T18:42:53.976Z,76.04
2018-07-28T18:45:22.309Z,76.41
2018-07-28T18:47:50.601Z,76.54
2018-07-28T18:50:18.940Z,75.40
2018-07-28T18:52:47.204Z,75.64
2018-07-28T18:55:15.549Z,74.41
2018-07-28T18:57:43.811Z,75.00
2018-07-28T19:00:12.173Z,75.81
2018-07-28T19:02:40.436Z,77.48
2018-07-28T19:05:08.828Z,77.73
2018-07-28T19:07:37.124Z,77.86
2018-07-28T19:10:05.486Z,77.67
2018-07-28T19:12:39.017Z,77.42
2018-07-28T19:15:07.325Z,77.18
2018-07-28T19:17:40.978Z,78.80
2018-07-28T19:20:09.428Z,79.47
2018-07-28T19:22:43.185Z,78.16
2018-07-28T19:25:11.460Z,79.32
2018-07-28T19:27:40.230Z,78.37
2018-07-28T19:30:08.533Z,78.22
2018-07-28T19:32:36.800Z,78.53
2018-07-28T19:35:05.189Z,78.58
2018-07-28T19:37:33.553Z,79.18
2018-07-28T19:40:01.824Z,79.02
2018-07-28T19:42:52.182Z,79.79
2018-07-28T19:45:20.921Z,80.42
2018-07-28T19:47:49.237Z,79.97
2018-07-28T19:50:17.519Z,80.18
2018-07-28T19:52:45.812Z,77.82
2018-07-28T19:55:14.123Z,78.80
2018-07-28T19:57:42.433Z,77.46
2018-07-28T20:00:10.700Z,76.60
2018-07-28T20:02:39.097Z,76.20
2018-07-28T20:05:07.641Z,76.10
2018-07-28T20:07:36.260Z,75.20
2018-07-28T20:10:04.905Z,73.90
2018-07-28T20:12:33.281Z,74.95
2018-07-28T20:15:01.650Z,75.10
2018-07-28T20:17:29.977Z,75.86
2018-07-28T20:19:58.318Z,74.01
2018-07-28T20:22:26.681Z,73.17
2018-07-28T20:24:55.025Z,73.57
2018-07-28T20:27:23.424Z,74.44
2018-07-28T20:29:51.713Z,74.70
2018-07-28T20:32:20.227Z,75.69
2018-07-28T20:34:48.668Z,76.13
2018-07-28T20:37:17.155Z,76.17
2018-07-28T20:39:45.505Z,76.17
2018-07-28T20:42:13.890Z,77.02
2018-07-28T20:44:42.237Z,76.93
2018-07-28T20:47:10.578Z,76.99
2018-07-28T20:49:39.585Z,76.83
2018-07-28T20:52:08.734Z,79.42
2018-07-28T20:54:37.029Z,81.00
2018-07-28T20:57:05.490Z,81.21
2018-07-28T20:59:33.844Z,83.18
2018-07-28T21:02:02.289Z,84.19
2018-07-28T21:04:30.589Z,84.96
2018-07-28T21:06:58.903Z,84.55
2018-07-28T21:09:27.320Z,84.12
2018-07-28T21:11:55.762Z,83.63
2018-07-28T21:14:24.122Z,84.74
2018-07-28T21:16:52.390Z,84.13
2018-07-28T21:19:20.701Z,84.61
2018-07-28T21:21:49.003Z,83.71
2018-07-28T21:24:17.281Z,84.28
2018-07-28T21:26:45.629Z,84.13
2018-07-28T21:29:14.026Z,83.14
2018-07-28T21:31:42.293Z,82.57
2018-07-28T21:34:10.676Z,82.24
2018-07-28T21:36:38.985Z,82.70
2018-07-28T21:39:08.909Z,82.46
2018-07-28T21:41:37.216Z,82.28
2018-07-28T21:44:05.520Z,82.98
2018-07-28T21:46:33.838Z,82.08
2018-07-28T21:49:02.187Z,82.72
2018-07-28T21:51:30.585Z,82.90
2018-07-28T21:53:59.392Z,82.55
2018-07-28T21:56:27.675Z,83.09
2018-07-28T21:58:56.729Z,82.78
2018-07-28T22:01:25.101Z,83.33
2018-07-28T22:03:54.681Z,83.19
2018-07-28T22:06:22.992Z,83.20
2018-07-28T22:08:51.317Z,82.60
2018-07-28T22:11:19.581Z,82.54
2018-07-28T22:13:47.892Z,82.65
2018-07-28T22:16:16.466Z,82.81
2018-07-28T22:18:45.197Z,82.72
2018-07-28T22:21:14.032Z,81.83
2018-07-28T22:23:42.333Z,82.68
2018-07-28T22:26:10.598Z,83.33
2018-07-28T22:28:38.908Z,83.21
2018-07-28T22:31:07.220Z,82.19
2018-07-28T22:33:36.029Z,82.75
2018-07-28T22:36:04.353Z,83.22
2018-07-28T22:38:32.665Z,82.55
2018-07-28T22:41:00.937Z,82.74
2018-07-28T22:43:29.257Z,82.43
2018-07-28T22:45:57.636Z,83.86
2018-07-28T22:48:25.926Z,84.42
2018-07-28T22:50:54.228Z,84.14
2018-07-28T22:53:22.537Z,84.90
2018-07-28T22:55:50.833Z,84.58
2018-07-28T22:58:19.221Z,84.25
2018-07-28T23:00:47.520Z,84.29
2018-07-28T23:03:15.796Z,83.93
2018-07-28T23:05:44.117Z,84.00
2018-07-28T23:08:12.426Z,83.70
2018-07-28T23:10:40.745Z,83.70
2018-07-28T23:13:09.449Z,83.39
2018-07-28T23:15:37.777Z,82.86
2018-07-28T23:18:06.066Z,81.45
2018-07-28T23:20:34.381Z,81.74
2018-07-28T23:23:02.680Z,79.83
2018-07-28T23:25:31.089Z,75.89
2018-07-28T23:27:59.385Z,76.19
2018-07-28T23:30:27.696Z,75.05
2018-07-28T23:32:55.977Z,73.82
2018-07-28T23:35:24.293Z,72.75
2018-07-28T23:37:52.579Z,72.51
2018-07-28T23:40:21.136Z,72.42
2018-07-28T23:42:49.433Z,72.45
2018-07-28T23:45:19.081Z,72.82
2018-07-28T23:47:49.482Z,73.43
2018-07-28T23:50:17.785Z,73.67
2018-07-28T23:52:46.085Z,74.16
2018-07-28T23:55:14.418Z,74.16
2018-07-28T23:57:42.766Z,72.52
